sensor_id;sensor_type;location;lat;lon;timestamp;P1;durP1;ratioP1;P2;durP2;ratioP2
76761;SDS011;65705;51.032;13.790;2024-03-02T00:00:19;40.85;;;23.77;;
76761;SDS011;65705;51.032;13.790;2024-03-02T00:02:47;41.05;;;24.45;;
76761;SDS011;65705;51.032;13.790;2024-03-02T00:05:15;43.47;;;26.63;;
76761;SDS011;65705;51.032;13.790;2024-03-02T00:07:45;40.58;;;22.60;;
76761;SDS011;65705;51.032;13.790;2024-03-02T00:10:19;43.97;;;25.23;;
76761;SDS011;65705;51.032;13.790;2024-03-02T00:12:48;43.00;;;24.55;;
76761;SDS011;65705;51.032;13.790;2024-03-02T00:17:55;40.42;;;23.83;;
76761;SDS011;65705;51.032;13.790;2024-03-02T00:20:21;39.45;;;24.38;;
76761;SDS011;65705;51.032;13.790;2024-03-02T00:22:51;42.03;;;23.90;;
76761;SDS011;65705;51.032;13.790;2024-03-02T00:25:17;40.53;;;22.58;;
76761;SDS011;65705;51.032;13.790;2024-03-02T00:27:47;40.22;;;23.83;;
76761;SDS011;65705;51.032;13.790;2024-03-02T00:33:09;45.65;;;23.98;;
76761;SDS011;65705;51.032;13.790;2024-03-02T00:35:36;41.17;;;23.90;;
76761;SDS011;65705;51.032;13.790;2024-03-02T00:38:05;40.28;;;24.00;;
76761;SDS011;65705;51.032;13.790;2024-03-02T00:40:34;39.75;;;23.55;;
76761;SDS011;65705;51.032;13.790;2024-03-02T00:42:59;38.72;;;23.73;;
76761;SDS011;65705;51.032;13.790;2024-03-02T00:45:29;40.92;;;23.92;;
76761;SDS011;65705;51.032;13.790;2024-03-02T00:47:55;46.05;;;25.35;;
76761;SDS011;65705;51.032;13.790;2024-03-02T00:50:21;39.03;;;22.23;;
76761;SDS011;65705;51.032;13.790;2024-03-02T00:52:47;41.72;;;22.20;;
76761;SDS011;65705;51.032;13.790;2024-03-02T00:55:15;43.90;;;25.05;;
76761;SDS011;65705;51.032;13.790;2024-03-02T00:57:41;39.38;;;22.77;;
76761;SDS011;65705;51.032;13.790;2024-03-02T01:00:07;39.38;;;24.92;;
76761;SDS011;65705;51.032;13.790;2024-03-02T01:02:35;40.55;;;24.25;;
76761;SDS011;65705;51.032;13.790;2024-03-02T01:05:01;40.28;;;22.90;;
76761;SDS011;65705;51.032;13.790;2024-03-02T01:07:27;41.97;;;22.98;;
76761;SDS011;65705;51.032;13.790;2024-03-02T01:09:52;42.47;;;23.83;;
76761;SDS011;65705;51.032;13.790;2024-03-02T01:12:18;39.75;;;23.25;;
76761;SDS011;65705;51.032;13.790;2024-03-02T01:14:44;41.15;;;23.85;;
76761;SDS011;65705;51.032;13.790;2024-03-02T01:17:09;41.25;;;24.15;;
76761;SDS011;65705;51.032;13.790;2024-03-02T01:19:35;40.65;;;24.38;;
76761;SDS011;65705;51.032;13.790;2024-03-02T01:22:01;43.10;;;24.77;;
76761;SDS011;65705;51.032;13.790;2024-03-02T01:24:26;42.05;;;24.33;;
76761;SDS011;65705;51.032;13.790;2024-03-02T01:26:52;44.38;;;24.10;;
76761;SDS011;65705;51.032;13.790;2024-03-02T01:29:18;39.55;;;23.50;;
76761;SDS011;65705;51.032;13.790;2024-03-02T01:31:43;40.50;;;24.45;;
76761;SDS011;65705;51.032;13.790;2024-03-02T01:34:10;39.00;;;21.75;;
76761;SDS011;65705;51.032;13.790;2024-03-02T01:36:38;38.38;;;23.63;;
76761;SDS011;65705;51.032;13.790;2024-03-02T01:39:03;39.55;;;23.27;;
76761;SDS011;65705;51.032;13.790;2024-03-02T01:41:34;36.10;;;21.65;;
76761;SDS011;65705;51.032;13.790;2024-03-02T01:43:59;39.67;;;24.23;;
76761;SDS011;65705;51.032;13.790;2024-03-02T01:46:25;39.38;;;22.42;;
76761;SDS011;65705;51.032;13.790;2024-03-02T01:48:51;39.85;;;24.35;;
76761;SDS011;65705;51.032;13.790;2024-03-02T01:51:17;39.78;;;24.50;;
76761;SDS011;65705;51.032;13.790;2024-03-02T01:53:42;40.35;;;22.63;;
76761;SDS011;65705;51.032;13.790;2024-03-02T01:56:08;43.92;;;24.75;;
76761;SDS011;65705;51.032;13.790;2024-03-02T01:58:34;40.03;;;23.25;;
76761;SDS011;65705;51.032;13.790;2024-03-02T02:01:00;41.67;;;22.90;;
76761;SDS011;65705;51.032;13.790;2024-03-02T02:03:25;43.25;;;25.05;;
76761;SDS011;65705;51.032;13.790;2024-03-02T02:05:51;42.40;;;24.70;;
76761;SDS011;65705;51.032;13.790;2024-03-02T02:08:16;44.00;;;24.35;;
76761;SDS011;65705;51.032;13.790;2024-03-02T02:10:42;41.67;;;25.38;;
76761;SDS011;65705;51.032;13.790;2024-03-02T02:13:08;46.33;;;24.55;;
76761;SDS011;65705;51.032;13.790;2024-03-02T02:15:34;46.45;;;25.33;;
76761;SDS011;65705;51.032;13.790;2024-03-02T02:18:01;46.70;;;26.33;;
76761;SDS011;65705;51.032;13.790;2024-03-02T02:20:27;52.33;;;27.77;;
76761;SDS011;65705;51.032;13.790;2024-03-02T02:23:03;46.30;;;26.10;;
76761;SDS011;65705;51.032;13.790;2024-03-02T02:25:35;46.80;;;26.20;;
76761;SDS011;65705;51.032;13.790;2024-03-02T02:28:00;43.38;;;25.45;;
76761;SDS011;65705;51.032;13.790;2024-03-02T02:30:28;48.50;;;25.35;;
76761;SDS011;65705;51.032;13.790;2024-03-02T02:32:55;46.08;;;26.38;;
76761;SDS011;65705;51.032;13.790;2024-03-02T02:35:21;45.88;;;26.02;;
76761;SDS011;65705;51.032;13.790;2024-03-02T02:37:47;51.58;;;27.70;;
76761;SDS011;65705;51.032;13.790;2024-03-02T02:40:17;50.50;;;27.60;;
76761;SDS011;65705;51.032;13.790;2024-03-02T02:42:44;50.95;;;28.40;;
76761;SDS011;65705;51.032;13.790;2024-03-02T02:45:10;56.38;;;29.27;;
76761;SDS011;65705;51.032;13.790;2024-03-02T02:47:38;46.92;;;27.77;;
76761;SDS011;65705;51.032;13.790;2024-03-02T02:50:04;52.42;;;28.30;;
76761;SDS011;65705;51.032;13.790;2024-03-02T02:52:32;53.55;;;27.27;;
76761;SDS011;65705;51.032;13.790;2024-03-02T02:54:59;51.20;;;27.63;;
76761;SDS011;65705;51.032;13.790;2024-03-02T02:57:24;52.15;;;26.77;;
76761;SDS011;65705;51.032;13.790;2024-03-02T02:59:50;55.95;;;29.58;;
76761;SDS011;65705;51.032;13.790;2024-03-02T03:02:16;56.65;;;28.73;;
76761;SDS011;65705;51.032;13.790;2024-03-02T03:04:41;53.70;;;27.30;;
76761;SDS011;65705;51.032;13.790;2024-03-02T03:07:07;54.90;;;28.70;;
76761;SDS011;65705;51.032;13.790;2024-03-02T03:09:33;55.78;;;28.33;;
76761;SDS011;65705;51.032;13.790;2024-03-02T03:11:58;57.60;;;27.92;;
76761;SDS011;65705;51.032;13.790;2024-03-02T03:14:24;53.45;;;25.13;;
76761;SDS011;65705;51.032;13.790;2024-03-02T03:16:50;52.92;;;27.55;;
76761;SDS011;65705;51.032;13.790;2024-03-02T03:19:15;54.67;;;26.48;;
76761;SDS011;65705;51.032;13.790;2024-03-02T03:21:43;53.53;;;26.55;;
76761;SDS011;65705;51.032;13.790;2024-03-02T03:24:09;58.35;;;29.30;;
76761;SDS011;65705;51.032;13.790;2024-03-02T03:26:37;59.92;;;28.15;;
76761;SDS011;65705;51.032;13.790;2024-03-02T03:29:03;58.35;;;29.55;;
76761;SDS011;65705;51.032;13.790;2024-03-02T03:31:29;58.20;;;28.65;;
76761;SDS011;65705;51.032;13.790;2024-03-02T03:33:55;61.28;;;30.40;;
76761;SDS011;65705;51.032;13.790;2024-03-02T03:36:20;64.28;;;30.23;;
76761;SDS011;65705;51.032;13.790;2024-03-02T03:38:46;68.85;;;30.17;;
76761;SDS011;65705;51.032;13.790;2024-03-02T03:41:12;63.10;;;30.25;;
76761;SDS011;65705;51.032;13.790;2024-03-02T03:43:37;67.30;;;30.13;;
76761;SDS011;65705;51.032;13.790;2024-03-02T03:46:03;60.58;;;29.45;;
76761;SDS011;65705;51.032;13.790;2024-03-02T03:48:28;64.53;;;29.00;;
76761;SDS011;65705;51.032;13.790;2024-03-02T03:50:56;64.20;;;28.85;;
76761;SDS011;65705;51.032;13.790;2024-03-02T03:53:22;66.07;;;29.40;;
76761;SDS011;65705;51.032;13.790;2024-03-02T03:55:48;66.00;;;30.42;;
76761;SDS011;65705;51.032;13.790;2024-03-02T03:58:17;73.38;;;30.33;;
76761;SDS011;65705;51.032;13.790;2024-03-02T04:00:44;60.15;;;28.77;;
76761;SDS011;65705;51.032;13.790;2024-03-02T04:03:09;61.30;;;30.00;;
76761;SDS011;65705;51.032;13.790;2024-03-02T04:05:35;73.55;;;31.63;;
76761;SDS011;65705;51.032;13.790;2024-03-02T04:08:01;69.28;;;30.52;;
76761;SDS011;65705;51.032;13.790;2024-03-02T04:10:26;66.47;;;27.52;;
76761;SDS011;65705;51.032;13.790;2024-03-02T04:12:52;63.95;;;29.30;;
76761;SDS011;65705;51.032;13.790;2024-03-02T04:15:17;66.20;;;28.88;;
76761;SDS011;65705;51.032;13.790;2024-03-02T04:17:44;71.57;;;31.45;;
76761;SDS011;65705;51.032;13.790;2024-03-02T04:20:10;66.68;;;31.65;;
76761;SDS011;65705;51.032;13.790;2024-03-02T04:22:37;63.35;;;28.48;;
76761;SDS011;65705;51.032;13.790;2024-03-02T04:25:03;66.85;;;29.80;;
76761;SDS011;65705;51.032;13.790;2024-03-02T04:27:32;59.97;;;28.23;;
76761;SDS011;65705;51.032;13.790;2024-03-02T04:29:58;68.53;;;29.90;;
76761;SDS011;65705;51.032;13.790;2024-03-02T04:32:26;62.60;;;28.90;;
76761;SDS011;65705;51.032;13.790;2024-03-02T04:34:52;64.68;;;29.48;;
76761;SDS011;65705;51.032;13.790;2024-03-02T04:37:18;65.07;;;28.92;;
76761;SDS011;65705;51.032;13.790;2024-03-02T04:39:44;64.10;;;27.15;;
76761;SDS011;65705;51.032;13.790;2024-03-02T04:42:10;69.20;;;29.95;;
76761;SDS011;65705;51.032;13.790;2024-03-02T04:44:36;70.80;;;30.75;;
76761;SDS011;65705;51.032;13.790;2024-03-02T04:47:03;78.13;;;31.80;;
76761;SDS011;65705;51.032;13.790;2024-03-02T04:49:30;68.55;;;29.70;;
76761;SDS011;65705;51.032;13.790;2024-03-02T04:51:55;68.22;;;30.05;;
76761;SDS011;65705;51.032;13.790;2024-03-02T04:54:22;69.10;;;29.17;;
76761;SDS011;65705;51.032;13.790;2024-03-02T04:56:48;66.25;;;29.50;;
76761;SDS011;65705;51.032;13.790;2024-03-02T04:59:17;63.85;;;29.25;;
76761;SDS011;65705;51.032;13.790;2024-03-02T05:01:43;68.47;;;29.27;;
76761;SDS011;65705;51.032;13.790;2024-03-02T05:04:09;70.22;;;29.73;;
76761;SDS011;65705;51.032;13.790;2024-03-02T05:06:38;60.95;;;28.25;;
76761;SDS011;65705;51.032;13.790;2024-03-02T05:09:05;61.55;;;28.40;;
76761;SDS011;65705;51.032;13.790;2024-03-02T05:11:32;68.47;;;30.15;;
76761;SDS011;65705;51.032;13.790;2024-03-02T05:14:17;63.20;;;29.17;;
76761;SDS011;65705;51.032;13.790;2024-03-02T05:16:43;64.40;;;28.40;;
76761;SDS011;65705;51.032;13.790;2024-03-02T05:19:08;64.85;;;28.63;;
76761;SDS011;65705;51.032;13.790;2024-03-02T05:21:34;65.28;;;28.13;;
76761;SDS011;65705;51.032;13.790;2024-03-02T05:24:00;64.80;;;28.60;;
76761;SDS011;65705;51.032;13.790;2024-03-02T05:26:26;59.47;;;26.40;;
76761;SDS011;65705;51.032;13.790;2024-03-02T05:28:52;63.05;;;27.48;;
76761;SDS011;65705;51.032;13.790;2024-03-02T05:31:18;61.60;;;27.40;;
76761;SDS011;65705;51.032;13.790;2024-03-02T05:33:44;61.17;;;27.17;;
76761;SDS011;65705;51.032;13.790;2024-03-02T05:36:09;64.30;;;28.02;;
76761;SDS011;65705;51.032;13.790;2024-03-02T05:38:35;60.80;;;27.08;;
76761;SDS011;65705;51.032;13.790;2024-03-02T05:41:01;53.58;;;23.60;;
76761;SDS011;65705;51.032;13.790;2024-03-02T05:43:27;53.75;;;26.38;;
76761;SDS011;65705;51.032;13.790;2024-03-02T05:45:53;50.53;;;24.65;;
76761;SDS011;65705;51.032;13.790;2024-03-02T05:48:18;54.30;;;25.27;;
76761;SDS011;65705;51.032;13.790;2024-03-02T05:50:44;47.28;;;22.83;;
76761;SDS011;65705;51.032;13.790;2024-03-02T05:53:10;48.20;;;24.15;;
76761;SDS011;65705;51.032;13.790;2024-03-02T05:55:35;49.67;;;24.48;;
76761;SDS011;65705;51.032;13.790;2024-03-02T05:58:01;46.30;;;23.20;;
76761;SDS011;65705;51.032;13.790;2024-03-02T06:00:45;49.80;;;23.77;;
76761;SDS011;65705;51.032;13.790;2024-03-02T06:03:11;51.53;;;25.40;;
76761;SDS011;65705;51.032;13.790;2024-03-02T06:05:37;52.42;;;24.38;;
76761;SDS011;65705;51.032;13.790;2024-03-02T06:08:02;52.60;;;24.30;;
76761;SDS011;65705;51.032;13.790;2024-03-02T06:10:28;48.30;;;24.20;;
76761;SDS011;65705;51.032;13.790;2024-03-02T06:12:54;46.80;;;23.30;;
76761;SDS011;65705;51.032;13.790;2024-03-02T06:15:20;48.33;;;23.55;;
76761;SDS011;65705;51.032;13.790;2024-03-02T06:17:45;54.15;;;23.92;;
76761;SDS011;65705;51.032;13.790;2024-03-02T06:20:11;54.35;;;25.30;;
76761;SDS011;65705;51.032;13.790;2024-03-02T06:22:37;48.65;;;23.95;;
76761;SDS011;65705;51.032;13.790;2024-03-02T06:25:02;51.25;;;24.30;;
76761;SDS011;65705;51.032;13.790;2024-03-02T06:27:28;46.55;;;23.80;;
76761;SDS011;65705;51.032;13.790;2024-03-02T06:29:54;45.90;;;23.65;;
76761;SDS011;65705;51.032;13.790;2024-03-02T06:32:20;51.70;;;25.75;;
76761;SDS011;65705;51.032;13.790;2024-03-02T06:34:45;49.55;;;23.70;;
76761;SDS011;65705;51.032;13.790;2024-03-02T06:37:11;53.22;;;25.13;;
76761;SDS011;65705;51.032;13.790;2024-03-02T06:39:38;50.45;;;23.23;;
76761;SDS011;65705;51.032;13.790;2024-03-02T06:42:04;50.75;;;24.23;;
76761;SDS011;65705;51.032;13.790;2024-03-02T06:44:29;52.90;;;23.65;;
76761;SDS011;65705;51.032;13.790;2024-03-02T06:46:55;52.40;;;25.00;;
76761;SDS011;65705;51.032;13.790;2024-03-02T06:49:21;57.03;;;24.35;;
76761;SDS011;65705;51.032;13.790;2024-03-02T06:51:46;59.17;;;24.27;;
76761;SDS011;65705;51.032;13.790;2024-03-02T06:54:12;54.25;;;25.02;;
76761;SDS011;65705;51.032;13.790;2024-03-02T06:56:38;52.97;;;23.05;;
76761;SDS011;65705;51.032;13.790;2024-03-02T06:59:04;54.22;;;24.88;;
76761;SDS011;65705;51.032;13.790;2024-03-02T07:01:30;52.17;;;23.67;;
76761;SDS011;65705;51.032;13.790;2024-03-02T07:03:55;52.97;;;25.13;;
76761;SDS011;65705;51.032;13.790;2024-03-02T07:06:21;58.95;;;25.20;;
76761;SDS011;65705;51.032;13.790;2024-03-02T07:08:47;55.88;;;24.13;;
76761;SDS011;65705;51.032;13.790;2024-03-02T07:11:12;53.45;;;23.65;;
76761;SDS011;65705;51.032;13.790;2024-03-02T07:13:38;50.47;;;22.95;;
76761;SDS011;65705;51.032;13.790;2024-03-02T07:16:04;52.70;;;22.67;;
76761;SDS011;65705;51.032;13.790;2024-03-02T07:18:30;56.38;;;25.25;;
76761;SDS011;65705;51.032;13.790;2024-03-02T07:20:59;58.25;;;24.25;;
76761;SDS011;65705;51.032;13.790;2024-03-02T07:23:26;56.90;;;25.90;;
76761;SDS011;65705;51.032;13.790;2024-03-02T07:25:53;57.25;;;24.70;;
76761;SDS011;65705;51.032;13.790;2024-03-02T07:28:24;61.45;;;25.73;;
76761;SDS011;65705;51.032;13.790;2024-03-02T07:31:00;56.45;;;24.90;;
76761;SDS011;65705;51.032;13.790;2024-03-02T07:33:27;59.95;;;27.27;;
76761;SDS011;65705;51.032;13.790;2024-03-02T07:35:56;65.32;;;30.92;;
76761;SDS011;65705;51.032;13.790;2024-03-02T07:38:24;61.50;;;28.80;;
76761;SDS011;65705;51.032;13.790;2024-03-02T07:40:50;62.88;;;27.45;;
76761;SDS011;65705;51.032;13.790;2024-03-02T07:43:16;59.90;;;25.95;;
76761;SDS011;65705;51.032;13.790;2024-03-02T07:45:42;58.15;;;26.02;;
76761;SDS011;65705;51.032;13.790;2024-03-02T07:48:08;60.13;;;25.63;;
76761;SDS011;65705;51.032;13.790;2024-03-02T07:50:34;62.45;;;26.52;;
76761;SDS011;65705;51.032;13.790;2024-03-02T07:53:03;61.75;;;28.10;;
76761;SDS011;65705;51.032;13.790;2024-03-02T07:55:30;62.40;;;28.00;;
76761;SDS011;65705;51.032;13.790;2024-03-02T07:57:59;58.65;;;26.38;;
76761;SDS011;65705;51.032;13.790;2024-03-02T08:00:25;63.40;;;27.98;;
76761;SDS011;65705;51.032;13.790;2024-03-02T08:02:52;60.92;;;27.65;;
76761;SDS011;65705;51.032;13.790;2024-03-02T08:05:18;64.18;;;27.35;;
76761;SDS011;65705;51.032;13.790;2024-03-02T08:07:46;67.40;;;27.70;;
76761;SDS011;65705;51.032;13.790;2024-03-02T08:10:13;71.47;;;28.92;;
76761;SDS011;65705;51.032;13.790;2024-03-02T08:12:39;66.55;;;26.80;;
76761;SDS011;65705;51.032;13.790;2024-03-02T08:15:05;64.70;;;28.00;;
76761;SDS011;65705;51.032;13.790;2024-03-02T08:17:31;63.65;;;26.35;;
76761;SDS011;65705;51.032;13.790;2024-03-02T08:19:57;64.60;;;26.90;;
76761;SDS011;65705;51.032;13.790;2024-03-02T08:22:23;60.08;;;26.60;;
76761;SDS011;65705;51.032;13.790;2024-03-02T08:24:50;62.75;;;25.80;;
76761;SDS011;65705;51.032;13.790;2024-03-02T08:27:16;61.95;;;25.40;;
76761;SDS011;65705;51.032;13.790;2024-03-02T08:29:42;62.55;;;24.98;;
76761;SDS011;65705;51.032;13.790;2024-03-02T08:32:08;55.50;;;22.77;;
76761;SDS011;65705;51.032;13.790;2024-03-02T08:34:34;57.38;;;22.50;;
76761;SDS011;65705;51.032;13.790;2024-03-02T08:37:01;62.15;;;23.15;;
76761;SDS011;65705;51.032;13.790;2024-03-02T08:39:27;52.50;;;21.88;;
76761;SDS011;65705;51.032;13.790;2024-03-02T08:41:53;55.75;;;22.33;;
76761;SDS011;65705;51.032;13.790;2024-03-02T08:44:19;52.95;;;22.85;;
76761;SDS011;65705;51.032;13.790;2024-03-02T08:46:45;46.05;;;20.67;;
76761;SDS011;65705;51.032;13.790;2024-03-02T08:49:12;49.85;;;21.08;;
76761;SDS011;65705;51.032;13.790;2024-03-02T08:51:38;55.42;;;24.30;;
76761;SDS011;65705;51.032;13.790;2024-03-02T08:54:03;45.90;;;20.33;;
76761;SDS011;65705;51.032;13.790;2024-03-02T08:56:30;50.03;;;20.30;;
76761;SDS011;65705;51.032;13.790;2024-03-02T08:58:56;43.17;;;19.70;;
76761;SDS011;65705;51.032;13.790;2024-03-02T09:01:22;46.75;;;19.63;;
76761;SDS011;65705;51.032;13.790;2024-03-02T09:03:48;42.55;;;19.23;;
76761;SDS011;65705;51.032;13.790;2024-03-02T09:06:14;47.65;;;19.80;;
76761;SDS011;65705;51.032;13.790;2024-03-02T09:08:42;40.85;;;17.63;;
76761;SDS011;65705;51.032;13.790;2024-03-02T09:11:08;42.38;;;19.17;;
76761;SDS011;65705;51.032;13.790;2024-03-02T09:13:38;41.60;;;18.75;;
76761;SDS011;65705;51.032;13.790;2024-03-02T09:16:04;40.90;;;17.83;;
76761;SDS011;65705;51.032;13.790;2024-03-02T09:18:30;40.35;;;17.88;;
76761;SDS011;65705;51.032;13.790;2024-03-02T09:20:56;47.15;;;20.23;;
76761;SDS011;65705;51.032;13.790;2024-03-02T09:23:22;40.22;;;18.25;;
76761;SDS011;65705;51.032;13.790;2024-03-02T09:25:48;44.78;;;20.90;;
76761;SDS011;65705;51.032;13.790;2024-03-02T09:28:15;38.05;;;17.30;;
76761;SDS011;65705;51.032;13.790;2024-03-02T09:30:41;40.92;;;18.73;;
76761;SDS011;65705;51.032;13.790;2024-03-02T09:33:07;38.65;;;17.95;;
76761;SDS011;65705;51.032;13.790;2024-03-02T09:35:32;38.58;;;17.55;;
76761;SDS011;65705;51.032;13.790;2024-03-02T09:37:58;35.00;;;16.75;;
76761;SDS011;65705;51.032;13.790;2024-03-02T09:40:24;41.47;;;18.13;;
76761;SDS011;65705;51.032;13.790;2024-03-02T09:42:50;38.08;;;17.13;;
76761;SDS011;65705;51.032;13.790;2024-03-02T09:45:21;39.05;;;18.33;;
76761;SDS011;65705;51.032;13.790;2024-03-02T09:47:48;38.45;;;17.98;;
76761;SDS011;65705;51.032;13.790;2024-03-02T09:50:14;38.53;;;17.83;;
76761;SDS011;65705;51.032;13.790;2024-03-02T09:52:40;41.13;;;17.83;;
76761;SDS011;65705;51.032;13.790;2024-03-02T09:55:08;41.80;;;19.17;;
76761;SDS011;65705;51.032;13.790;2024-03-02T09:57:34;38.53;;;19.10;;
76761;SDS011;65705;51.032;13.790;2024-03-02T09:59:59;41.22;;;19.23;;
76761;SDS011;65705;51.032;13.790;2024-03-02T10:02:25;38.90;;;18.25;;
76761;SDS011;65705;51.032;13.790;2024-03-02T10:04:51;46.00;;;19.10;;
76761;SDS011;65705;51.032;13.790;2024-03-02T10:07:18;38.22;;;18.25;;
76761;SDS011;65705;51.032;13.790;2024-03-02T10:09:45;45.33;;;20.02;;
76761;SDS011;65705;51.032;13.790;2024-03-02T10:12:13;38.88;;;19.08;;
76761;SDS011;65705;51.032;13.790;2024-03-02T10:14:40;43.63;;;19.40;;
76761;SDS011;65705;51.032;13.790;2024-03-02T10:17:10;43.13;;;19.48;;
76761;SDS011;65705;51.032;13.790;2024-03-02T10:19:37;43.25;;;20.52;;
76761;SDS011;65705;51.032;13.790;2024-03-02T10:22:05;43.30;;;20.83;;
76761;SDS011;65705;51.032;13.790;2024-03-02T10:24:35;45.78;;;20.10;;
76761;SDS011;65705;51.032;13.790;2024-03-02T10:27:08;47.30;;;21.30;;
76761;SDS011;65705;51.032;13.790;2024-03-02T10:29:38;46.63;;;20.98;;
76761;SDS011;65705;51.032;13.790;2024-03-02T10:32:05;45.38;;;21.02;;
76761;SDS011;65705;51.032;13.790;2024-03-02T10:34:31;53.90;;;20.77;;
76761;SDS011;65705;51.032;13.790;2024-03-02T10:36:57;48.35;;;21.02;;
76761;SDS011;65705;51.032;13.790;2024-03-02T10:39:24;44.65;;;21.23;;
76761;SDS011;65705;51.032;13.790;2024-03-02T10:41:49;50.58;;;21.13;;
76761;SDS011;65705;51.032;13.790;2024-03-02T10:44:18;45.05;;;18.65;;
76761;SDS011;65705;51.032;13.790;2024-03-02T10:46:45;43.55;;;19.92;;
76761;SDS011;65705;51.032;13.790;2024-03-02T10:49:12;45.28;;;18.45;;
76761;SDS011;65705;51.032;13.790;2024-03-02T10:51:38;44.95;;;19.17;;
76761;SDS011;65705;51.032;13.790;2024-03-02T10:54:05;41.20;;;17.83;;
76761;SDS011;65705;51.032;13.790;2024-03-02T10:56:32;40.17;;;17.73;;
76761;SDS011;65705;51.032;13.790;2024-03-02T10:59:37;34.30;;;16.75;;
76761;SDS011;65705;51.032;13.790;2024-03-02T11:02:00;41.20;;;17.77;;
76761;SDS011;65705;51.032;13.790;2024-03-02T11:04:27;31.50;;;16.50;;
76761;SDS011;65705;51.032;13.790;2024-03-02T11:07:00;25.90;;;13.38;;
76761;SDS011;65705;51.032;13.790;2024-03-02T11:09:29;26.35;;;12.07;;
76761;SDS011;65705;51.032;13.790;2024-03-02T11:14:31;26.90;;;13.63;;
76761;SDS011;65705;51.032;13.790;2024-03-02T11:17:02;24.92;;;12.23;;
76761;SDS011;65705;51.032;13.790;2024-03-02T11:19:29;30.95;;;11.80;;
76761;SDS011;65705;51.032;13.790;2024-03-02T11:21:56;20.67;;;9.48;;
76761;SDS011;65705;51.032;13.790;2024-03-02T11:26:58;21.27;;;8.60;;
76761;SDS011;65705;51.032;13.790;2024-03-02T11:29:46;15.63;;;8.20;;
76761;SDS011;65705;51.032;13.790;2024-03-02T11:32:15;18.00;;;9.00;;
76761;SDS011;65705;51.032;13.790;2024-03-02T11:34:50;20.58;;;8.65;;
76761;SDS011;65705;51.032;13.790;2024-03-02T11:37:17;14.52;;;7.40;;
76761;SDS011;65705;51.032;13.790;2024-03-02T11:39:46;16.70;;;7.80;;
76761;SDS011;65705;51.032;13.790;2024-03-02T11:42:15;14.10;;;7.72;;
76761;SDS011;65705;51.032;13.790;2024-03-02T11:44:43;18.40;;;7.78;;
76761;SDS011;65705;51.032;13.790;2024-03-02T11:47:11;22.80;;;9.10;;
76761;SDS011;65705;51.032;13.790;2024-03-02T11:49:46;21.23;;;9.02;;
76761;SDS011;65705;51.032;13.790;2024-03-02T11:52:15;24.92;;;8.80;;
76761;SDS011;65705;51.032;13.790;2024-03-02T11:54:44;20.02;;;8.90;;
76761;SDS011;65705;51.032;13.790;2024-03-02T11:57:22;17.20;;;8.70;;
76761;SDS011;65705;51.032;13.790;2024-03-02T11:59:48;21.27;;;10.00;;
76761;SDS011;65705;51.032;13.790;2024-03-02T12:02:15;23.83;;;9.68;;
76761;SDS011;65705;51.032;13.790;2024-03-02T12:04:43;22.88;;;10.15;;
76761;SDS011;65705;51.032;13.790;2024-03-02T12:07:10;22.23;;;9.75;;
76761;SDS011;65705;51.032;13.790;2024-03-02T12:09:36;18.85;;;8.90;;
76761;SDS011;65705;51.032;13.790;2024-03-02T12:12:03;23.23;;;8.60;;
76761;SDS011;65705;51.032;13.790;2024-03-02T12:14:33;19.70;;;8.68;;
76761;SDS011;65705;51.032;13.790;2024-03-02T12:17:00;21.15;;;9.57;;
76761;SDS011;65705;51.032;13.790;2024-03-02T12:19:27;21.42;;;9.30;;
76761;SDS011;65705;51.032;13.790;2024-03-02T12:21:58;23.90;;;9.07;;
76761;SDS011;65705;51.032;13.790;2024-03-02T12:24:26;21.08;;;10.30;;
76761;SDS011;65705;51.032;13.790;2024-03-02T12:26:53;20.50;;;9.80;;
76761;SDS011;65705;51.032;13.790;2024-03-02T12:29:19;22.65;;;10.15;;
76761;SDS011;65705;51.032;13.790;2024-03-02T12:31:49;20.58;;;11.13;;
76761;SDS011;65705;51.032;13.790;2024-03-02T12:34:16;24.27;;;11.10;;
76761;SDS011;65705;51.032;13.790;2024-03-02T12:36:43;24.85;;;11.18;;
76761;SDS011;65705;51.032;13.790;2024-03-02T12:39:09;22.95;;;10.40;;
76761;SDS011;65705;51.032;13.790;2024-03-02T12:41:37;23.80;;;10.82;;
76761;SDS011;65705;51.032;13.790;2024-03-02T12:44:03;20.48;;;9.80;;
76761;SDS011;65705;51.032;13.790;2024-03-02T12:46:30;22.48;;;10.52;;
76761;SDS011;65705;51.032;13.790;2024-03-02T12:48:57;24.77;;;10.60;;
76761;SDS011;65705;51.032;13.790;2024-03-02T12:51:24;24.83;;;10.55;;
76761;SDS011;65705;51.032;13.790;2024-03-02T12:53:59;19.70;;;9.20;;
76761;SDS011;65705;51.032;13.790;2024-03-02T12:56:25;20.67;;;9.50;;
76761;SDS011;65705;51.032;13.790;2024-03-02T12:58:54;21.63;;;9.32;;
76761;SDS011;65705;51.032;13.790;2024-03-02T13:01:20;22.27;;;9.90;;
76761;SDS011;65705;51.032;13.790;2024-03-02T13:03:48;22.27;;;9.98;;
76761;SDS011;65705;51.032;13.790;2024-03-02T13:06:16;30.17;;;9.38;;
76761;SDS011;65705;51.032;13.790;2024-03-02T13:08:42;22.65;;;10.45;;
76761;SDS011;65705;51.032;13.790;2024-03-02T13:11:08;25.77;;;10.68;;
76761;SDS011;65705;51.032;13.790;2024-03-02T13:13:34;21.02;;;9.98;;
76761;SDS011;65705;51.032;13.790;2024-03-02T13:16:00;23.50;;;10.95;;
76761;SDS011;65705;51.032;13.790;2024-03-02T13:18:26;24.77;;;10.93;;
76761;SDS011;65705;51.032;13.790;2024-03-02T13:20:53;20.77;;;9.65;;
76761;SDS011;65705;51.032;13.790;2024-03-02T13:23:21;20.75;;;9.80;;
76761;SDS011;65705;51.032;13.790;2024-03-02T13:25:47;20.42;;;10.77;;
76761;SDS011;65705;51.032;13.790;2024-03-02T13:28:13;24.30;;;9.77;;
76761;SDS011;65705;51.032;13.790;2024-03-02T13:30:39;20.17;;;10.68;;
76761;SDS011;65705;51.032;13.790;2024-03-02T13:33:04;26.50;;;13.45;;
76761;SDS011;65705;51.032;13.790;2024-03-02T13:35:30;22.45;;;10.50;;
76761;SDS011;65705;51.032;13.790;2024-03-02T13:37:56;20.65;;;9.93;;
76761;SDS011;65705;51.032;13.790;2024-03-02T13:40:21;19.58;;;9.75;;
76761;SDS011;65705;51.032;13.790;2024-03-02T13:42:49;20.00;;;10.02;;
76761;SDS011;65705;51.032;13.790;2024-03-02T13:45:17;20.33;;;9.82;;
76761;SDS011;65705;51.032;13.790;2024-03-02T13:47:43;21.73;;;9.05;;
76761;SDS011;65705;51.032;13.790;2024-03-02T13:50:09;18.35;;;9.10;;
76761;SDS011;65705;51.032;13.790;2024-03-02T13:52:35;21.02;;;8.77;;
76761;SDS011;65705;51.032;13.790;2024-03-02T13:55:01;18.00;;;9.30;;
76761;SDS011;65705;51.032;13.790;2024-03-02T13:57:27;20.88;;;9.75;;
76761;SDS011;65705;51.032;13.790;2024-03-02T13:59:53;17.52;;;8.45;;
76761;SDS011;65705;51.032;13.790;2024-03-02T14:02:19;21.45;;;9.23;;
76761;SDS011;65705;51.032;13.790;2024-03-02T14:04:45;16.83;;;8.32;;
76761;SDS011;65705;51.032;13.790;2024-03-02T14:07:14;19.23;;;9.10;;
76761;SDS011;65705;51.032;13.790;2024-03-02T14:09:40;25.42;;;10.88;;
76761;SDS011;65705;51.032;13.790;2024-03-02T14:12:06;26.40;;;13.18;;
76761;SDS011;65705;51.032;13.790;2024-03-02T14:14:32;28.42;;;13.13;;
76761;SDS011;65705;51.032;13.790;2024-03-02T14:16:58;23.75;;;12.02;;
76761;SDS011;65705;51.032;13.790;2024-03-02T14:19:31;26.38;;;12.00;;